sensor_id;sensor_type;location;lat;lon;timestamp;P1;durP1;ratioP1;P2;durP2;ratioP2
49900;SDS011;35789;48.414;12.768;2022-09-30T00:00:00;12.7;;;6.7;;
49900;SDS011;35789;48.414;12.768;2022-09-30T00:05:00;12.6;;;8.0;;
49900;SDS011;35789;48.414;12.768;2022-09-30T00:10:00;12.6;;;8.0;;
49900;SDS011;35789;48.414;12.768;2022-09-30T00:15:00;12.6;;;8.0;;
49900;SDS011;35789;48.414;12.768;2022-09-30T00:20:00;12.6;;;8.0;;
49900;SDS011;35789;48.414;12.768;2022-09-30T00:25:00;12.6;;;8.0;;
49900;SDS011;35789;48.414;12.768;2022-09-30T00:30:00;12.6;;;8.0;;
49900;SDS011;35789;48.414;12.768;2022-09-30T00:35:00;14.8;;;8.6;;
49900;SDS011;35789;48.414;12.768;2022-09-30T00:40:00;14.8;;;8.6;;
49900;SDS011;35789;48.414;12.768;2022-09-30T00:45:04;14.8;;;8.6;;
49900;SDS011;35789;48.414;12.768;2022-09-30T00:50:02;14.8;;;8.6;;
49900;SDS011;35789;48.414;12.768;2022-09-30T00:55:03;14.8;;;8.6;;
49900;SDS011;35789;48.414;12.768;2022-09-30T01:00:01;14.8;;;8.6;;
49900;SDS011;35789;48.414;12.768;2022-09-30T01:05:00;14.6;;;8.3;;
49900;SDS011;35789;48.414;12.768;2022-09-30T01:10:00;14.6;;;8.3;;
49900;SDS011;35789;48.414;12.768;2022-09-30T01:15:01;14.6;;;8.3;;
49900;SDS011;35789;48.414;12.768;2022-09-30T01:30:04;14.6;;;8.3;;
49900;SDS011;35789;48.414;12.768;2022-09-30T01:35:06;16.3;;;8.9;;
49900;SDS011;35789;48.414;12.768;2022-09-30T01:40:04;16.3;;;8.9;;
49900;SDS011;35789;48.414;12.768;2022-09-30T01:45:06;16.3;;;8.9;;
49900;SDS011;35789;48.414;12.768;2022-09-30T01:50:03;16.3;;;8.9;;
49900;SDS011;35789;48.414;12.768;2022-09-30T01:55:04;16.3;;;8.9;;
49900;SDS011;35789;48.414;12.768;2022-09-30T02:00:04;16.3;;;8.9;;
49900;SDS011;35789;48.414;12.768;2022-09-30T02:05:04;15.8;;;8.2;;
49900;SDS011;35789;48.414;12.768;2022-09-30T02:10:03;15.8;;;8.2;;
49900;SDS011;35789;48.414;12.768;2022-09-30T02:15:03;15.8;;;8.2;;
49900;SDS011;35789;48.414;12.768;2022-09-30T02:20:04;15.8;;;8.2;;
49900;SDS011;35789;48.414;12.768;2022-09-30T02:25:01;15.8;;;8.2;;
49900;SDS011;35789;48.414;12.768;2022-09-30T02:30:00;15.8;;;8.2;;
49900;SDS011;35789;48.414;12.768;2022-09-30T02:35:03;24.8;;;10.0;;
49900;SDS011;35789;48.414;12.768;2022-09-30T02:40:03;24.8;;;10.0;;
49900;SDS011;35789;48.414;12.768;2022-09-30T02:45:02;24.8;;;10.0;;
49900;SDS011;35789;48.414;12.768;2022-09-30T02:50:03;24.8;;;10.0;;
49900;SDS011;35789;48.414;12.768;2022-09-30T02:55:09;24.8;;;10.0;;
49900;SDS011;35789;48.414;12.768;2022-09-30T03:00:00;24.8;;;10.0;;
49900;SDS011;35789;48.414;12.768;2022-09-30T03:05:00;16.9;;;9.3;;
49900;SDS011;35789;48.414;12.768;2022-09-30T03:10:00;16.9;;;9.3;;
49900;SDS011;35789;48.414;12.768;2022-09-30T03:15:15;16.9;;;9.3;;
49900;SDS011;35789;48.414;12.768;2022-09-30T03:20:12;16.9;;;9.3;;
49900;SDS011;35789;48.414;12.768;2022-09-30T03:25:13;16.9;;;9.3;;
49900;SDS011;35789;48.414;12.768;2022-09-30T03:30:03;16.9;;;9.3;;
49900;SDS011;35789;48.414;12.768;2022-09-30T03:35:05;23.4;;;10.4;;
49900;SDS011;35789;48.414;12.768;2022-09-30T03:40:03;23.4;;;10.4;;
49900;SDS011;35789;48.414;12.768;2022-09-30T03:45:04;23.4;;;10.4;;
49900;SDS011;35789;48.414;12.768;2022-09-30T03:50:04;23.4;;;10.4;;
49900;SDS011;35789;48.414;12.768;2022-09-30T03:55:03;23.4;;;10.4;;
49900;SDS011;35789;48.414;12.768;2022-09-30T04:00:00;23.4;;;10.4;;
49900;SDS011;35789;48.414;12.768;2022-09-30T04:05:00;16.0;;;9.6;;
49900;SDS011;35789;48.414;12.768;2022-09-30T04:10:00;16.0;;;9.6;;
49900;SDS011;35789;48.414;12.768;2022-09-30T04:15:00;16.0;;;9.6;;
49900;SDS011;35789;48.414;12.768;2022-09-30T04:20:00;16.0;;;9.6;;
49900;SDS011;35789;48.414;12.768;2022-09-30T04:25:00;16.0;;;9.6;;
49900;SDS011;35789;48.414;12.768;2022-09-30T04:30:00;16.0;;;9.6;;
49900;SDS011;35789;48.414;12.768;2022-09-30T04:35:00;18.1;;;10.3;;
49900;SDS011;35789;48.414;12.768;2022-09-30T04:40:00;18.1;;;10.3;;
49900;SDS011;35789;48.414;12.768;2022-09-30T04:45:00;18.1;;;10.3;;
49900;SDS011;35789;48.414;12.768;2022-09-30T04:50:00;18.1;;;10.3;;
49900;SDS011;35789;48.414;12.768;2022-09-30T04:55:00;18.1;;;10.3;;
49900;SDS011;35789;48.414;12.768;2022-09-30T05:00:00;18.1;;;10.3;;
49900;SDS011;35789;48.414;12.768;2022-09-30T05:05:00;17.8;;;10.4;;
49900;SDS011;35789;48.414;12.768;2022-09-30T05:10:00;17.8;;;10.4;;
49900;SDS011;35789;48.414;12.768;2022-09-30T05:15:00;17.8;;;10.4;;
49900;SDS011;35789;48.414;12.768;2022-09-30T05:20:01;17.8;;;10.4;;
49900;SDS011;35789;48.414;12.768;2022-09-30T05:25:00;17.8;;;10.4;;
49900;SDS011;35789;48.414;12.768;2022-09-30T05:30:00;17.8;;;10.4;;
49900;SDS011;35789;48.414;12.768;2022-09-30T05:35:00;15.9;;;9.0;;
49900;SDS011;35789;48.414;12.768;2022-09-30T05:40:00;15.9;;;9.0;;
49900;SDS011;35789;48.414;12.768;2022-09-30T05:45:00;15.9;;;9.0;;
49900;SDS011;35789;48.414;12.768;2022-09-30T05:50:00;15.9;;;9.0;;
49900;SDS011;35789;48.414;12.768;2022-09-30T05:55:00;15.9;;;9.0;;
49900;SDS011;35789;48.414;12.768;2022-09-30T06:00:00;15.9;;;10.6;;
49900;SDS011;35789;48.414;12.768;2022-09-30T06:05:00;21.5;;;10.6;;
49900;SDS011;35789;48.414;12.768;2022-09-30T06:10:00;21.5;;;10.6;;
49900;SDS011;35789;48.414;12.768;2022-09-30T06:15:00;21.5;;;10.6;;
49900;SDS011;35789;48.414;12.768;2022-09-30T06:20:00;21.5;;;10.6;;
49900;SDS011;35789;48.414;12.768;2022-09-30T06:25:00;21.5;;;10.6;;
49900;SDS011;35789;48.414;12.768;2022-09-30T06:30:00;22.1;;;12.9;;
49900;SDS011;35789;48.414;12.768;2022-09-30T06:35:00;22.1;;;12.9;;
49900;SDS011;35789;48.414;12.768;2022-09-30T06:40:00;22.1;;;12.9;;
49900;SDS011;35789;48.414;12.768;2022-09-30T06:45:00;22.1;;;12.9;;
49900;SDS011;35789;48.414;12.768;2022-09-30T06:50:00;22.1;;;12.9;;
49900;SDS011;35789;48.414;12.768;2022-09-30T06:55:00;22.1;;;12.9;;
49900;SDS011;35789;48.414;12.768;2022-09-30T07:00:01;18.2;;;10.2;;
49900;SDS011;35789;48.414;12.768;2022-09-30T07:05:00;18.2;;;10.2;;
49900;SDS011;35789;48.414;12.768;2022-09-30T07:10:00;18.2;;;10.2;;
49900;SDS011;35789;48.414;12.768;2022-09-30T07:15:00;18.2;;;10.2;;
49900;SDS011;35789;48.414;12.768;2022-09-30T07:20:00;18.2;;;10.2;;
49900;SDS011;35789;48.414;12.768;2022-09-30T07:25:02;18.2;;;10.2;;
49900;SDS011;35789;48.414;12.768;2022-09-30T07:30:00;16.7;;;10.3;;
49900;SDS011;35789;48.414;12.768;2022-09-30T07:35:00;16.7;;;10.3;;
49900;SDS011;35789;48.414;12.768;2022-09-30T07:40:01;16.7;;;10.3;;
49900;SDS011;35789;48.414;12.768;2022-09-30T07:45:00;16.7;;;10.3;;
49900;SDS011;35789;48.414;12.768;2022-09-30T07:50:00;16.7;;;10.3;;
49900;SDS011;35789;48.414;12.768;2022-09-30T07:55:00;16.7;;;10.3;;
49900;SDS011;35789;48.414;12.768;2022-09-30T08:00:00;16.6;;;10.1;;
49900;SDS011;35789;48.414;12.768;2022-09-30T08:05:00;16.6;;;10.1;;
49900;SDS011;35789;48.414;12.768;2022-09-30T08:10:00;16.6;;;10.1;;
49900;SDS011;35789;48.414;12.768;2022-09-30T08:15:00;16.6;;;10.1;;
49900;SDS011;35789;48.414;12.768;2022-09-30T08:20:00;16.6;;;10.1;;
49900;SDS011;35789;48.414;12.768;2022-09-30T08:25:00;16.6;;;10.1;;
49900;SDS011;35789;48.414;12.768;2022-09-30T08:30:00;15.0;;;9.1;;
49900;SDS011;35789;48.414;12.768;2022-09-30T08:35:00;15.0;;;9.1;;
49900;SDS011;35789;48.414;12.768;2022-09-30T08:40:00;15.0;;;9.1;;
49900;SDS011;35789;48.414;12.768;2022-09-30T08:45:07;15.0;;;9.1;;
49900;SDS011;35789;48.414;12.768;2022-09-30T08:50:09;15.0;;;9.1;;
49900;SDS011;35789;48.414;12.768;2022-09-30T08:55:00;15.0;;;9.1;;
49900;SDS011;35789;48.414;12.768;2022-09-30T09:00:03;12.1;;;7.9;;
49900;SDS011;35789;48.414;12.768;2022-09-30T09:05:02;12.1;;;7.9;;
49900;SDS011;35789;48.414;12.768;2022-09-30T09:10:06;12.1;;;7.9;;
49900;SDS011;35789;48.414;12.768;2022-09-30T09:15:14;12.1;;;7.9;;
49900;SDS011;35789;48.414;12.768;2022-09-30T09:20:06;12.1;;;7.9;;
49900;SDS011;35789;48.414;12.768;2022-09-30T09:25:00;12.1;;;7.9;;
49900;SDS011;35789;48.414;12.768;2022-09-30T09:30:08;11.7;;;7.1;;
49900;SDS011;35789;48.414;12.768;2022-09-30T09:35:05;11.7;;;7.1;;
49900;SDS011;35789;48.414;12.768;2022-09-30T09:40:06;11.7;;;7.1;;
49900;SDS011;35789;48.414;12.768;2022-09-30T09:45:02;11.7;;;7.1;;
49900;SDS011;35789;48.414;12.768;2022-09-30T09:50:02;11.7;;;7.1;;
49900;SDS011;35789;48.414;12.768;2022-09-30T09:55:00;11.7;;;7.1;;
49900;SDS011;35789;48.414;12.768;2022-09-30T10:00:02;7.0;;;3.8;;
49900;SDS011;35789;48.414;12.768;2022-09-30T10:05:00;7.0;;;3.8;;
49900;SDS011;35789;48.414;12.768;2022-09-30T10:10:16;7.0;;;3.8;;
49900;SDS011;35789;48.414;12.768;2022-09-30T10:20:05;7.0;;;3.8;;
49900;SDS011;35789;48.414;12.768;2022-09-30T10:25:19;7.0;;;3.8;;
49900;SDS011;35789;48.414;12.768;2022-09-30T10:30:00;4.9;;;2.6;;
49900;SDS011;35789;48.414;12.768;2022-09-30T10:35:03;4.9;;;2.6;;
49900;SDS011;35789;48.414;12.768;2022-09-30T10:40:02;4.9;;;2.6;;
49900;SDS011;35789;48.414;12.768;2022-09-30T10:45:04;4.9;;;2.6;;
49900;SDS011;35789;48.414;12.768;2022-09-30T10:50:02;4.9;;;2.6;;
49900;SDS011;35789;48.414;12.768;2022-09-30T10:55:04;4.9;;;2.6;;
49900;SDS011;35789;48.414;12.768;2022-09-30T11:00:03;7.6;;;2.3;;
49900;SDS011;35789;48.414;12.768;2022-09-30T11:05:12;7.6;;;2.3;;
49900;SDS011;35789;48.414;12.768;2022-09-30T11:10:06;7.6;;;2.3;;
49900;SDS011;35789;48.414;12.768;2022-09-30T11:15:06;7.6;;;2.3;;
49900;SDS011;35789;48.414;12.768;2022-09-30T11:20:10;7.6;;;2.3;;
49900;SDS011;35789;48.414;12.768;2022-09-30T11:25:00;7.6;;;2.3;;
49900;SDS011;35789;48.414;12.768;2022-09-30T11:30:03;4.5;;;2.1;;
49900;SDS011;35789;48.414;12.768;2022-09-30T11:35:12;4.5;;;2.1;;
49900;SDS011;35789;48.414;12.768;2022-09-30T11:40:14;4.5;;;2.1;;
49900;SDS011;35789;48.414;12.768;2022-09-30T11:45:08;4.5;;;2.1;;
49900;SDS011;35789;48.414;12.768;2022-09-30T11:50:13;4.5;;;2.1;;
49900;SDS011;35789;48.414;12.768;2022-09-30T11:55:20;4.5;;;2.1;;
49900;SDS011;35789;48.414;12.768;2022-09-30T12:00:04;3.5;;;1.6;;
49900;SDS011;35789;48.414;12.768;2022-09-30T12:05:04;3.5;;;1.6;;
49900;SDS011;35789;48.414;12.768;2022-09-30T12:10:03;3.5;;;1.6;;
49900;SDS011;35789;48.414;12.768;2022-09-30T12:15:03;3.5;;;1.6;;
49900;SDS011;35789;48.414;12.768;2022-09-30T12:20:06;3.5;;;1.6;;
49900;SDS011;35789;48.414;12.768;2022-09-30T12:25:01;3.5;;;1.6;;
49900;SDS011;35789;48.414;12.768;2022-09-30T12:30:02;3.6;;;1.8;;
49900;SDS011;35789;48.414;12.768;2022-09-30T12:35:14;3.6;;;1.8;;
49900;SDS011;35789;48.414;12.768;2022-09-30T12:40:09;3.6;;;1.8;;
49900;SDS011;35789;48.414;12.768;2022-09-30T12:45:17;3.6;;;1.8;;
49900;SDS011;35789;48.414;12.768;2022-09-30T12:50:03;3.6;;;1.8;;
49900;SDS011;35789;48.414;12.768;2022-09-30T12:55:04;3.6;;;1.8;;
49900;SDS011;35789;48.414;12.768;2022-09-30T13:00:03;5.0;;;2.3;;
49900;SDS011;35789;48.414;12.768;2022-09-30T13:20:00;5.0;;;2.3;;
49900;SDS011;35789;48.414;12.768;2022-09-30T13:25:10;5.0;;;2.3;;
49900;SDS011;35789;48.414;12.768;2022-09-30T13:35:00;4.7;;;2.1;;
49900;SDS011;35789;48.414;12.768;2022-09-30T13:40:01;4.7;;;2.1;;
49900;SDS011;35789;48.414;12.768;2022-09-30T13:45:03;4.7;;;2.1;;
49900;SDS011;35789;48.414;12.768;2022-09-30T13:50:08;4.7;;;2.1;;
49900;SDS011;35789;48.414;12.768;2022-09-30T13:55:05;4.7;;;2.1;;
49900;SDS011;35789;48.414;12.768;2022-09-30T14:00:04;5.0;;;1.6;;
49900;SDS011;35789;48.414;12.768;2022-09-30T14:05:18;5.0;;;1.6;;
49900;SDS011;35789;48.414;12.768;2022-09-30T14:10:11;5.0;;;1.6;;
49900;SDS011;35789;48.414;12.768;2022-09-30T14:15:19;5.0;;;1.6;;
49900;SDS011;35789;48.414;12.768;2022-09-30T14:20:11;5.0;;;1.6;;
49900;SDS011;35789;48.414;12.768;2022-09-30T14:25:00;5.0;;;1.6;;
49900;SDS011;35789;48.414;12.768;2022-09-30T14:30:04;5.3;;;2.6;;
49900;SDS011;35789;48.414;12.768;2022-09-30T14:35:04;5.3;;;2.6;;
49900;SDS011;35789;48.414;12.768;2022-09-30T14:40:00;5.3;;;2.6;;
49900;SDS011;35789;48.414;12.768;2022-09-30T14:45:02;5.3;;;2.6;;
49900;SDS011;35789;48.414;12.768;2022-09-30T14:50:00;5.3;;;2.6;;
49900;SDS011;35789;48.414;12.768;2022-09-30T14:55:00;5.3;;;2.6;;
49900;SDS011;35789;48.414;12.768;2022-09-30T15:00:18;5.7;;;3.2;;
49900;SDS011;35789;48.414;12.768;2022-09-30T15:05:02;5.7;;;3.2;;
49900;SDS011;35789;48.414;12.768;2022-09-30T15:10:00;5.7;;;3.2;;
49900;SDS011;35789;48.414;12.768;2022-09-30T15:15:00;5.7;;;3.2;;
49900;SDS011;35789;48.414;12.768;2022-09-30T15:20:00;5.7;;;3.2;;
49900;SDS011;35789;48.414;12.768;2022-09-30T15:25:00;5.7;;;3.2;;
49900;SDS011;35789;48.414;12.768;2022-09-30T15:30:02;4.9;;;3.1;;
49900;SDS011;35789;48.414;12.768;2022-09-30T15:35:03;4.9;;;3.1;;
49900;SDS011;35789;48.414;12.768;2022-09-30T15:40:00;4.9;;;3.1;;
49900;SDS011;35789;48.414;12.768;2022-09-30T15:45:00;4.9;;;3.1;;
49900;SDS011;35789;48.414;12.768;2022-09-30T15:50:00;4.9;;;3.1;;
49900;SDS011;35789;48.414;12.768;2022-09-30T15:55:01;4.9;;;3.1;;
49900;SDS011;35789;48.414;12.768;2022-09-30T16:00:01;7.2;;;3.3;;
49900;SDS011;35789;48.414;12.768;2022-09-30T16:05:01;7.2;;;3.3;;
49900;SDS011;35789;48.414;12.768;2022-09-30T16:10:00;7.2;;;3.3;;
49900;SDS011;35789;48.414;12.768;2022-09-30T16:15:05;7.2;;;3.3;;
49900;SDS011;35789;48.414;12.768;2022-09-30T16:20:02;7.2;;;3.3;;
49900;SDS011;35789;48.414;12.768;2022-09-30T16:25:07;7.2;;;3.3;;
49900;SDS011;35789;48.414;12.768;2022-09-30T16:30:01;6.6;;;3.9;;
49900;SDS011;35789;48.414;12.768;2022-09-30T16:35:00;6.6;;;3.9;;
49900;SDS011;35789;48.414;12.768;2022-09-30T16:40:08;6.6;;;3.9;;
49900;SDS011;35789;48.414;12.768;2022-09-30T16:45:00;6.6;;;3.9;;
49900;SDS011;35789;48.414;12.768;2022-09-30T16:50:00;6.6;;;3.9;;
49900;SDS011;35789;48.414;12.768;2022-09-30T16:55:00;6.6;;;3.9;;
49900;SDS011;35789;48.414;12.768;2022-09-30T17:00:00;8.5;;;4.1;;
49900;SDS011;35789;48.414;12.768;2022-09-30T17:05:00;8.5;;;4.1;;
49900;SDS011;35789;48.414;12.768;2022-09-30T17:10:00;8.5;;;4.1;;
49900;SDS011;35789;48.414;12.768;2022-09-30T17:15:00;8.5;;;4.1;;
49900;SDS011;35789;48.414;12.768;2022-09-30T17:20:00;8.5;;;4.1;;
49900;SDS011;35789;48.414;12.768;2022-09-30T17:25:00;8.5;;;4.1;;
49900;SDS011;35789;48.414;12.768;2022-09-30T17:30:00;5.9;;;3.8;;
49900;SDS011;35789;48.414;12.768;2022-09-30T17:35:00;5.9;;;3.8;;
49900;SDS011;35789;48.414;12.768;2022-09-30T17:40:00;5.9;;;3.8;;
49900;SDS011;35789;48.414;12.768;2022-09-30T17:45:00;5.9;;;3.8;;
49900;SDS011;35789;48.414;12.768;2022-09-30T17:50:03;5.9;;;3.8;;
49900;SDS011;35789;48.414;12.768;2022-09-30T17:55:00;5.9;;;3.8;;
49900;SDS011;35789;48.414;12.768;2022-09-30T18:00:00;8.5;;;4.0;;
49900;SDS011;35789;48.414;12.768;2022-09-30T18:05:00;8.5;;;4.0;;
49900;SDS011;35789;48.414;12.768;2022-09-30T18:10:00;8.5;;;4.0;;
49900;SDS011;35789;48.414;12.768;2022-09-30T18:15:00;8.5;;;4.0;;
49900;SDS011;35789;48.414;12.768;2022-09-30T18:20:00;8.5;;;4.0;;
49900;SDS011;35789;48.414;12.768;2022-09-30T18:25:00;8.5;;;4.0;;
49900;SDS011;35789;48.414;12.768;2022-09-30T18:30:00;9.4;;;5.4;;
49900;SDS011;35789;48.414;12.768;2022-09-30T18:35:00;9.4;;;5.4;;
49900;SDS011;35789;48.414;12.768;2022-09-30T18:40:00;9.4;;;5.4;;
49900;SDS011;35789;48.414;12.768;2022-09-30T18:45:00;9.4;;;5.4;;
49900;SDS011;35789;48.414;12.768;2022-09-30T18:50:00;9.4;;;5.4;;
49900;SDS011;35789;48.414;12.768;2022-09-30T18:55:00;9.4;;;5.4;;
49900;SDS011;35789;48.414;12.768;2022-09-30T19:00:00;10.0;;;5.4;;
49900;SDS011;35789;48.414;12.768;2022-09-30T19:05:00;10.0;;;5.4;;
49900;SDS011;35789;48.414;12.768;2022-09-30T19:10:00;10.0;;;5.4;;
49900;SDS011;35789;48.414;12.768;2022-09-30T19:15:00;10.0;;;5.4;;
49900;SDS011;35789;48.414;12.768;2022-09-30T19:20:00;10.0;;;5.4;;
49900;SDS011;35789;48.414;12.768;2022-09-30T19:25:00;10.0;;;5.4;;
49900;SDS011;35789;48.414;12.768;2022-09-30T19:30:00;10.1;;;6.0;;
49900;SDS011;35789;48.414;12.768;2022-09-30T19:35:00;10.1;;;6.0;;
49900;SDS011;35789;48.414;12.768;2022-09-30T19:40:00;10.1;;;6.0;;
49900;SDS011;35789;48.414;12.768;2022-09-30T19:45:00;10.1;;;6.0;;
49900;SDS011;35789;48.414;12.768;2022-09-30T19:50:00;10.1;;;6.0;;
49900;SDS011;35789;48.414;12.768;2022-09-30T19:55:00;10.1;;;6.0;;
49900;SDS011;35789;48.414;12.768;2022-09-30T20:00:00;9.0;;;4.9;;
49900;SDS011;35789;48.414;12.768;2022-09-30T20:05:00;9.0;;;4.9;;
49900;SDS011;35789;48.414;12.768;2022-09-30T20:10:00;9.0;;;4.9;;
49900;SDS011;35789;48.414;12.768;2022-09-30T20:15:00;9.0;;;4.9;;
49900;SDS011;35789;48.414;12.768;2022-09-30T20:20:00;9.0;;;4.9;;
49900;SDS011;35789;48.414;12.768;2022-09-30T20:25:00;9.0;;;4.9;;
49900;SDS011;35789;48.414;12.768;2022-09-30T20:30:00;9.9;;;5.3;;
49900;SDS011;35789;48.414;12.768;2022-09-30T20:35:00;9.9;;;5.3;;
49900;SDS011;35789;48.414;12.768;2022-09-30T20:40:00;9.9;;;5.3;;
49900;SDS011;35789;48.414;12.768;2022-09-30T20:45:00;9.9;;;5.3;;
49900;SDS011;35789;48.414;12.768;2022-09-30T20:50:00;9.9;;;5.3;;
49900;SDS011;35789;48.414;12.768;2022-09-30T20:55:00;9.9;;;5.3;;
49900;SDS011;35789;48.414;12.768;2022-09-30T21:00:00;13.0;;;5.9;;
49900;SDS011;35789;48.414;12.768;2022-09-30T21:05:00;13.0;;;5.9;;
49900;SDS011;35789;48.414;12.768;2022-09-30T21:10:00;13.0;;;5.9;;
49900;SDS011;35789;48.414;12.768;2022-09-30T21:15:00;13.0;;;5.9;;
49900;SDS011;35789;48.414;12.768;2022-09-30T21:20:00;13.0;;;5.9;;
49900;SDS011;35789;48.414;12.768;2022-09-30T21:25:00;13.0;;;5.9;;
49900;SDS011;35789;48.414;12.768;2022-09-30T21:30:00;7.4;;;4.6;;
49900;SDS011;35789;48.414;12.768;2022-09-30T21:35:00;7.4;;;4.6;;
49900;SDS011;35789;48.414;12.768;2022-09-30T21:40:00;7.4;;;4.6;;
49900;SDS011;35789;48.414;12.768;2022-09-30T21:45:00;7.4;;;4.6;;
49900;SDS011;35789;48.414;12.768;2022-09-30T21:50:00;7.4;;;4.6;;
49900;SDS011;35789;48.414;12.768;2022-09-30T21:55:00;7.4;;;4.6;;
49900;SDS011;35789;48.414;12.768;2022-09-30T22:00:00;10.2;;;5.5;;
49900;SDS011;35789;48.414;12.768;2022-09-30T22:05:00;10.2;;;5.5;;
49900;SDS011;35789;48.414;12.768;2022-09-30T22:10:00;10.2;;;5.5;;
49900;SDS011;35789;48.414;12.768;2022-09-30T22:15:00;10.2;;;5.5;;
49900;SDS011;35789;48.414;12.768;2022-09-30T22:20:00;10.2;;;5.5;;
49900;SDS011;35789;48.414;12.768;2022-09-30T22:25:00;10.2;;;5.5;;
49900;SDS011;35789;48.414;12.768;2022-09-30T22:30:00;8.2;;;5.6;;
49900;SDS011;35789;48.414;12.768;2022-09-30T22:35:00;8.2;;;5.6;;
49900;SDS011;35789;48.414;12.768;2022-09-30T22:40:00;8.2;;;5.6;;
49900;SDS011;35789;48.414;12.768;2022-09-30T22:45:00;8.2;;;5.6;;
49900;SDS011;35789;48.414;12.768;2022-09-30T22:50:00;8.2;;;5.6;;
49900;SDS011;35789;48.414;12.768;2022-09-30T22:55:00;9.6;;;6.3;;
49900;SDS011;35789;48.414;12.768;2022-09-30T23:00:00;9.6;;;6.3;;
49900;SDS011;35789;48.414;12.768;2022-09-30T23:05:00;9.6;;;6.3;;
49900;SDS011;35789;48.414;12.768;2022-09-30T23:10:00;9.6;;;6.3;;
49900;SDS011;35789;48.414;12.768;2022-09-30T23:15:00;9.6;;;6.3;;
49900;SDS011;35789;48.414;12.768;2022-09-30T23:20:00;9.6;;;6.3;;
49900;SDS011;35789;48.414;12.768;2022-09-30T23:25:00;9.5;;;5.9;;
49900;SDS011;35789;48.414;12.768;2022-09-30T23:30:00;9.5;;;5.9;;
49900;SDS011;35789;48.414;12.768;2022-09-30T23:35:00;9.5;;;5.9;;
49900;SDS011;35789;48.414;12.768;2022-09-30T23:40:00;9.5;;;5.9;;
49900;SDS011;35789;48.414;12.768;2022-09-30T23:45:00;9.5;;;5.9;;
49900;SDS011;35789;48.414;12.768;2022-09-30T23:50:00;9.5;;;5.9;;
49900;SDS011;35789;48.414;12.768;2022-09-30T23:55:00;10.7;;;5.7;;
